Time;durP1;ratioP1;P1;durP2;ratioP2;P2;SDS_P1;SDS_P2;PMS_P1;PMS_P2;Temp;Humidity;BMP_temperature;BMP_pressure;BME280_temperature;BME280_humidity;BME280_pressure;Samples;Min_cycle;Max_cycle;Signal;HPM_P1;HPM_P2
2021/06/01 00:00:28;;;;;;;2.70;2.50;;;14.90;72.40;;;;;;5086487;28;27324;-63
2021/06/01 00:03:12;;;;;;;3.88;2.45;;;14.90;72.20;;;;;;5086142;28;27394;-62
2021/06/01 00:05:56;;;;;;;2.72;2.22;;;14.90;73.30;;;;;;5086309;28;27362;-62
2021/06/01 00:08:41;;;;;;;2.90;2.38;;;14.80;73.50;;;;;;5082107;28;27931;-62
2021/06/01 00:11:26;;;;;;;6.75;2.63;;;14.80;72.90;;;;;;5086657;28;27454;-62
2021/06/01 00:14:10;;;;;;;2.65;2.45;;;14.70;73.50;;;;;;5085431;28;27464;-62
2021/06/01 00:16:55;;;;;;;2.65;2.33;;;14.70;73.50;;;;;;5085470;28;27470;-62
2021/06/01 00:19:40;;;;;;;3.00;2.70;;;14.70;73.60;;;;;;5085816;28;27911;-66
2021/06/01 00:22:24;;;;;;;2.47;2.28;;;14.60;73.80;;;;;;5085853;28;27440;-62
2021/06/01 00:25:10;;;;;;;2.83;2.35;;;14.60;73.60;;;;;;5085833;28;27418;-63
2021/06/01 00:27:54;;;;;;;4.70;2.95;;;14.60;74.20;;;;;;5084436;28;27419;-62
2021/06/01 00:30:40;;;;;;;3.13;2.60;;;14.50;73.10;;;;;;5085605;28;27967;-65
2021/06/01 00:33:25;;;;;;;4.72;2.47;;;14.50;74.40;;;;;;5085582;28;27424;-62
2021/06/01 00:36:09;;;;;;;2.92;2.63;;;14.50;74.60;;;;;;5085698;28;27420;-62
2021/06/01 00:38:54;;;;;;;5.95;2.40;;;14.50;73.70;;;;;;5085466;28;27470;-63
2021/06/01 00:41:38;;;;;;;3.17;2.53;;;14.40;74.00;;;;;;5085702;28;27471;-63
2021/06/01 00:44:23;;;;;;;3.03;2.75;;;14.40;73.80;;;;;;5085627;28;27408;-62
2021/06/01 00:47:07;;;;;;;4.57;2.00;;;14.40;74.20;;;;;;5081471;28;27438;-62
2021/06/01 00:49:52;;;;;;;4.32;2.40;;;14.30;73.30;;;;;;5085602;28;27555;-62
2021/06/01 00:52:36;;;;;;;3.80;2.53;;;14.30;74.20;;;;;;5085614;28;27386;-62
2021/06/01 00:55:21;;;;;;;2.58;2.38;;;14.20;74.00;;;;;;5081259;28;27593;-62
2021/06/01 00:58:06;;;;;;;2.38;2.03;;;14.20;73.70;;;;;;5085285;28;27410;-62
2021/06/01 01:03:51;;;;;;;5.22;2.53;;;14.10;73.60;;;;;;5081213;28;28047;-62
2021/06/01 01:06:47;;;;;;;4.22;2.42;;;14.00;73.50;;;;;;5084360;28;27439;-65
2021/06/01 01:09:32;;;;;;;3.38;2.35;;;14.00;73.10;;;;;;5082102;28;27457;-62
2021/06/01 01:12:23;;;;;;;2.70;2.28;;;14.00;73.60;;;;;;5085067;28;27421;-62
2021/06/01 01:15:08;;;;;;;3.08;2.40;;;14.00;74.00;;;;;;5084212;28;27446;-62
2021/06/01 01:17:54;;;;;;;2.85;2.55;;;13.90;74.40;;;;;;5084967;28;27474;-62
2021/06/01 01:21:01;;;;;;;4.47;2.33;;;13.90;74.30;;;;;;5098652;27;27477;-63
2021/06/01 01:23:51;;;;;;;4.97;2.30;;;13.90;74.30;;;;;;5085142;28;27433;-62
2021/06/01 01:27:12;;;;;;;5.30;2.75;;;13.80;74.20;;;;;;5084832;28;27353;-62
2021/06/01 01:29:56;;;;;;;3.45;2.22;;;13.80;74.20;;;;;;5083954;28;27627;-62
2021/06/01 01:32:58;;;;;;;2.90;2.58;;;13.80;74.40;;;;;;5066662;28;26853;-62
2021/06/01 01:35:43;;;;;;;5.22;2.72;;;13.70;74.50;;;;;;5084237;28;27464;-62
2021/06/01 01:38:28;;;;;;;7.05;3.65;;;13.70;74.70;;;;;;5083790;28;27375;-63
2021/06/01 01:41:13;;;;;;;3.35;2.80;;;13.60;75.00;;;;;;5084713;28;27489;-62
2021/06/01 01:44:00;;;;;;;4.07;2.38;;;13.60;75.10;;;;;;5084780;28;27469;-63
2021/06/01 01:49:29;;;;;;;2.72;2.50;;;13.60;75.10;;;;;;5098425;27;27931;-63
2021/06/01 01:52:13;;;;;;;2.80;2.50;;;13.50;75.10;;;;;;5084686;28;27433;-62
2021/06/01 01:54:58;;;;;;;3.28;2.90;;;13.50;74.50;;;;;;5098227;27;27431;-62
2021/06/01 01:57:45;;;;;;;2.53;2.33;;;13.50;74.40;;;;;;5083658;28;27550;-62
2021/06/01 02:00:29;;;;;;;4.25;2.35;;;13.40;74.60;;;;;;5083698;28;27524;-62
2021/06/01 02:03:14;;;;;;;2.63;2.20;;;13.40;74.50;;;;;;5097597;27;27430;-62
2021/06/01 02:05:58;;;;;;;2.33;2.13;;;13.40;74.70;;;;;;5083400;28;27456;-62
2021/06/01 02:08:42;;;;;;;3.40;2.22;;;13.30;74.60;;;;;;5084222;28;27434;-62
2021/06/01 02:11:27;;;;;;;2.63;2.42;;;13.30;75.40;;;;;;5084106;28;27496;-62
2021/06/01 02:14:12;;;;;;;2.42;2.10;;;13.30;75.20;;;;;;5084050;28;27440;-66
2021/06/01 02:17:00;;;;;;;3.00;2.70;;;13.20;75.10;;;;;;5084128;28;27519;-62
2021/06/01 02:19:47;;;;;;;2.42;2.22;;;13.20;75.50;;;;;;5083520;28;27481;-62
2021/06/01 02:23:47;;;;;;;3.10;2.47;;;13.10;74.30;;;;;;5065740;28;27451;-62
2021/06/01 02:25:44;;;;;;;2.95;2.17;;;13.10;75.40;;;;;;5082733;28;27451;-62
2021/06/01 02:28:34;;;;;;;4.32;2.60;;;13.10;75.50;;;;;;5082325;28;27473;-63
2021/06/01 02:31:24;;;;;;;4.78;2.80;;;13.10;75.10;;;;;;5082811;28;27346;-62
2021/06/01 02:34:08;;;;;;;3.33;2.00;;;13.10;75.40;;;;;;5065574;28;27404;-63
2021/06/01 02:36:53;;;;;;;2.30;2.10;;;13.00;74.90;;;;;;5082757;28;27431;-63
2021/06/01 02:39:37;;;;;;;5.15;2.40;;;13.00;75.40;;;;;;5082907;28;27489;-62
2021/06/01 02:42:21;;;;;;;3.08;2.50;;;13.00;75.70;;;;;;5083947;28;27391;-62
2021/06/01 02:45:07;;;;;;;2.80;2.30;;;12.90;75.50;;;;;;5082944;28;27336;-63
2021/06/01 02:47:52;;;;;;;2.55;2.22;;;12.90;74.80;;;;;;5083901;28;27346;-62
2021/06/01 02:50:36;;;;;;;3.13;2.50;;;12.90;74.80;;;;;;5083847;28;27399;-62
2021/06/01 02:53:21;;;;;;;2.10;1.90;;;12.80;75.40;;;;;;5068591;28;27340;-62
2021/06/01 02:56:05;;;;;;;2.97;2.35;;;12.70;75.60;;;;;;5096760;28;27350;-65
2021/06/01 02:58:51;;;;;;;5.40;2.50;;;12.70;75.60;;;;;;5067311;28;27368;-62
2021/06/01 03:01:35;;;;;;;7.50;2.70;;;12.70;75.20;;;;;;5083332;28;27410;-62
2021/06/01 03:04:20;;;;;;;5.05;2.95;;;12.70;74.90;;;;;;5083530;28;27308;-62
2021/06/01 03:07:05;;;;;;;3.33;2.50;;;12.70;75.50;;;;;;5083475;28;27309;-62
2021/06/01 03:09:49;;;;;;;3.00;2.42;;;12.60;75.90;;;;;;5083247;28;27348;-62
2021/06/01 03:15:21;;;;;;;4.53;2.78;;;12.50;75.50;;;;;;5079241;28;27439;-62
2021/06/01 03:18:10;;;;;;;2.35;1.98;;;12.50;75.20;;;;;;5082354;28;27403;-65
2021/06/01 03:20:55;;;;;;;2.75;2.53;;;12.50;74.60;;;;;;5083287;28;27485;-61
2021/06/01 03:23:41;;;;;;;2.22;2.03;;;12.40;74.70;;;;;;5082339;28;27466;-62
2021/06/01 03:26:25;;;;;;;2.58;2.20;;;12.40;74.50;;;;;;5078962;28;27496;-62
2021/06/01 03:29:10;;;;;;;2.47;2.03;;;12.40;74.90;;;;;;5083165;28;28038;-62
2021/06/01 03:31:55;;;;;;;2.63;2.35;;;12.30;75.10;;;;;;5084516;28;27403;-61
2021/06/01 03:34:39;;;;;;;4.75;2.53;;;12.30;75.30;;;;;;5086598;28;27486;-61
2021/06/01 03:37:24;;;;;;;2.63;2.42;;;12.20;74.40;;;;;;5086756;28;27499;-62
2021/06/01 03:40:09;;;;;;;2.50;2.17;;;12.20;75.50;;;;;;5086403;28;27996;-62
2021/06/01 03:42:53;;;;;;;3.75;2.60;;;12.20;75.50;;;;;;5086462;28;27533;-62
2021/06/01 03:45:38;;;;;;;3.58;2.85;;;12.20;76.70;;;;;;5086710;28;27479;-62
2021/06/01 03:48:22;;;;;;;2.65;2.28;;;12.20;76.30;;;;;;5086607;28;27514;-62
2021/06/01 03:51:07;;;;;;;3.05;2.30;;;12.20;76.00;;;;;;5086116;28;27474;-62
2021/06/01 03:53:51;;;;;;;2.35;2.15;;;12.20;75.30;;;;;;5086580;28;27387;-62
2021/06/01 03:56:36;;;;;;;3.78;2.40;;;12.10;74.50;;;;;;5086214;28;27392;-62
2021/06/01 03:59:21;;;;;;;2.72;2.15;;;12.10;74.50;;;;;;5086211;28;27394;-62
2021/06/01 04:02:06;;;;;;;2.72;2.25;;;12.00;74.50;;;;;;5086164;28;27451;-62
2021/06/01 04:04:51;;;;;;;3.13;2.55;;;12.00;74.90;;;;;;5086464;28;27383;-62
2021/06/01 04:07:35;;;;;;;4.70;2.30;;;12.00;75.50;;;;;;5086329;28;27365;-62
2021/06/01 04:10:20;;;;;;;5.15;2.85;;;12.00;75.30;;;;;;5086245;28;27316;-62
2021/06/01 04:13:04;;;;;;;2.65;2.38;;;12.00;75.40;;;;;;5086123;28;27865;-62
2021/06/01 04:15:49;;;;;;;7.13;2.97;;;11.90;75.40;;;;;;5085185;28;27369;-62
2021/06/01 04:18:33;;;;;;;2.70;2.28;;;11.90;75.20;;;;;;5085608;28;27617;-62
2021/06/01 04:21:17;;;;;;;5.00;2.60;;;11.90;76.00;;;;;;5085324;28;27462;-62
2021/06/01 04:24:02;;;;;;;3.25;2.42;;;11.90;75.60;;;;;;5086086;28;28050;-62
2021/06/01 04:26:47;;;;;;;4.40;2.60;;;11.90;75.00;;;;;;5085341;28;27332;-65
2021/06/01 04:29:31;;;;;;;4.47;3.05;;;11.90;75.00;;;;;;5084913;28;27466;-61
2021/06/01 04:32:16;;;;;;;3.05;2.75;;;11.80;75.80;;;;;;5083881;28;27412;-63
2021/06/01 04:35:01;;;;;;;5.53;2.60;;;11.80;75.20;;;;;;5084793;28;27493;-62
2021/06/01 04:37:45;;;;;;;3.83;2.92;;;11.80;75.50;;;;;;5084470;28;27465;-62
2021/06/01 04:40:30;;;;;;;5.47;3.22;;;11.80;75.70;;;;;;5084565;28;27434;-61
2021/06/01 04:43:14;;;;;;;3.53;3.00;;;11.80;75.80;;;;;;5083221;28;27470;-61
2021/06/01 04:45:59;;;;;;;3.63;3.10;;;11.80;75.80;;;;;;5083913;28;27888;-62
2021/06/01 04:48:43;;;;;;;5.57;2.60;;;11.80;76.10;;;;;;5084514;28;27427;-62
2021/06/01 04:51:28;;;;;;;5.22;3.30;;;11.80;75.70;;;;;;5084580;28;27434;-62
2021/06/01 04:54:12;;;;;;;3.08;2.78;;;11.80;76.20;;;;;;5083400;28;27529;-62
2021/06/01 04:56:57;;;;;;;3.70;3.30;;;11.80;76.80;;;;;;5084105;28;27403;-62
2021/06/01 04:59:42;;;;;;;4.57;3.38;;;11.90;76.90;;;;;;5084352;28;27348;-62
2021/06/01 05:02:26;;;;;;;5.32;3.38;;;11.90;76.90;;;;;;5080295;28;27398;-62
2021/06/01 05:05:11;;;;;;;4.20;3.33;;;11.80;76.70;;;;;;5084377;28;27399;-61
2021/06/01 05:07:55;;;;;;;5.53;3.40;;;11.90;77.50;;;;;;5083921;28;27333;-62
2021/06/01 05:10:40;;;;;;;4.10;3.25;;;11.90;77.50;;;;;;5084081;28;27339;-62
2021/06/01 05:13:24;;;;;;;4.15;3.05;;;11.90;77.50;;;;;;5083387;28;27360;-62
2021/06/01 05:16:09;;;;;;;4.00;3.38;;;12.00;77.70;;;;;;5083882;28;27387;-62
2021/06/01 05:18:53;;;;;;;3.75;3.28;;;12.00;77.80;;;;;;5084062;28;27404;-62
2021/06/01 05:21:38;;;;;;;4.65;3.80;;;12.00;77.30;;;;;;5083669;28;27325;-61
2021/06/01 05:24:22;;;;;;;5.13;3.20;;;12.00;77.50;;;;;;5083703;28;27347;-62
2021/06/01 05:27:07;;;;;;;5.20;3.10;;;12.10;78.00;;;;;;5034829;28;1372215;-65
2021/06/01 05:29:56;;;;;;;5.97;3.03;;;12.10;78.50;;;;;;5084405;28;27898;-62
2021/06/01 05:35:29;;;;;;;5.22;3.53;;;12.10;78.70;;;;;;5084561;28;27505;-62
2021/06/01 05:38:14;;;;;;;5.15;3.88;;;12.20;79.20;;;;;;5084965;28;27480;-62
2021/06/01 05:40:59;;;;;;;9.13;4.18;;;12.20;77.50;;;;;;5083377;28;27833;-65
2021/06/01 05:43:44;;;;;;;10.70;4.00;;;12.30;77.70;;;;;;5084682;28;27419;-65
2021/06/01 05:46:28;;;;;;;6.55;3.88;;;12.40;79.50;;;;;;5083801;28;27502;-65
2021/06/01 05:49:13;;;;;;;5.65;4.30;;;12.50;78.80;;;;;;5084454;28;27398;-63
2021/06/01 05:51:57;;;;;;;4.72;4.22;;;12.70;78.80;;;;;;5084558;28;27442;-62
2021/06/01 05:54:42;;;;;;;4.85;4.30;;;12.80;78.80;;;;;;5082903;28;27532;-62
2021/06/01 05:57:26;;;;;;;4.10;3.70;;;13.10;78.00;;;;;;5084686;28;27350;-63
2021/06/01 06:00:11;;;;;;;5.05;4.25;;;13.30;77.00;;;;;;5084686;28;27448;-63
2021/06/01 06:02:56;;;;;;;9.05;5.55;;;13.60;76.60;;;;;;5084267;28;27458;-62
2021/06/01 06:05:41;;;;;;;7.00;4.53;;;13.80;74.50;;;;;;5084421;28;27367;-62
2021/06/01 06:08:27;;;;;;;6.85;4.60;;;14.00;75.00;;;;;;5083974;28;27431;-62
2021/06/01 06:11:12;;;;;;;5.25;4.38;;;14.30;75.40;;;;;;5083578;28;27403;-62
2021/06/01 06:13:56;;;;;;;5.53;4.90;;;14.50;75.30;;;;;;5084254;28;27336;-62
2021/06/01 06:16:46;;;;;;;4.57;3.70;;;14.70;75.20;;;;;;5084014;28;27419;-62
2021/06/01 06:19:30;;;;;;;6.60;3.78;;;14.90;74.70;;;;;;5084125;28;27470;-62
2021/06/01 06:22:14;;;;;;;5.45;4.78;;;15.10;74.10;;;;;;5083932;28;27446;-67
2021/06/01 06:25:00;;;;;;;6.43;4.30;;;15.30;73.70;;;;;;5083851;28;27458;-63
2021/06/01 06:27:44;;;;;;;4.35;3.60;;;15.50;73.30;;;;;;5083315;28;27441;-63
2021/06/01 06:30:29;;;;;;;7.43;4.68;;;15.70;74.70;;;;;;5083771;28;27407;-61
2021/06/01 06:33:14;;;;;;;5.38;4.30;;;16.00;75.20;;;;;;5084095;28;27616;-61
2021/06/01 06:35:58;;;;;;;4.47;4.00;;;16.10;73.50;;;;;;5083359;28;27549;-62
2021/06/01 06:38:46;;;;;;;6.47;4.32;;;16.30;74.30;;;;;;5068911;28;27479;-62
2021/06/01 06:41:31;;;;;;;5.85;3.63;;;16.50;76.10;;;;;;5084095;28;27439;-62
2021/06/01 06:44:16;;;;;;;4.10;3.70;;;16.70;76.70;;;;;;5083955;28;27428;-62
2021/06/01 06:49:55;;;;;;;4.30;3.75;;;17.10;77.20;;;;;;5083527;28;27485;-62
2021/06/01 06:52:40;;;;;;;4.20;3.60;;;17.30;77.80;;;;;;5084557;28;27409;-62
2021/06/01 06:55:25;;;;;;;7.03;4.03;;;17.50;79.60;;;;;;5084333;28;27414;-62
2021/06/01 06:58:09;;;;;;;3.50;3.00;;;17.70;79.00;;;;;;5084585;28;27451;-66
2021/06/01 07:00:54;;;;;;;4.60;3.38;;;17.90;78.00;;;;;;5084235;28;27416;-62
2021/06/01 07:03:39;;;;;;;6.05;2.63;;;18.10;76.30;;;;;;5084126;28;27462;-62
2021/06/01 07:06:24;;;;;;;2.58;2.30;;;18.30;76.10;;;;;;5084123;28;27427;-63
2021/06/01 07:09:09;;;;;;;4.82;2.38;;;18.50;74.60;;;;;;5084570;28;27458;-62
2021/06/01 07:11:54;;;;;;;4.13;2.15;;;18.70;74.60;;;;;;5084345;28;27394;-63
2021/06/01 07:14:57;;;;;;;4.45;2.20;;;18.90;70.30;;;;;;5084972;28;27476;-64
2021/06/01 07:17:45;;;;;;;3.80;2.00;;;19.10;71.20;;;;;;5084115;28;27333;-63
2021/06/01 07:20:31;;;;;;;3.30;2.20;;;19.30;70.20;;;;;;5084031;28;27424;-68
2021/06/01 07:23:16;;;;;;;6.15;2.08;;;19.50;71.20;;;;;;5084248;28;27582;-69
2021/06/01 07:26:01;;;;;;;3.97;2.00;;;19.70;72.50;;;;;;5084273;28;27416;-63
2021/06/01 07:28:46;;;;;;;2.47;1.92;;;19.90;70.70;;;;;;5082309;28;27656;-64
2021/06/01 07:31:31;;;;;;;2.28;1.77;;;20.10;70.00;;;;;;5083828;28;27445;-63
2021/06/01 07:34:16;;;;;;;7.13;1.92;;;20.30;69.20;;;;;;5083836;28;27412;-68
2021/06/01 07:37:01;;;;;;;2.50;1.90;;;20.50;67.30;;;;;;5083834;28;27544;-64
2021/06/01 07:39:45;;;;;;;5.60;1.98;;;20.60;66.10;;;;;;5080106;28;27469;-63
2021/06/01 07:42:30;;;;;;;2.85;1.88;;;20.80;64.90;;;;;;5089351;28;27484;-64
2021/06/01 07:45:23;;;;;;;2.38;1.92;;;21.00;66.80;;;;;;5085420;28;27429;-64
2021/06/01 07:48:08;;;;;;;2.72;2.05;;;21.20;67.10;;;;;;5084391;28;27463;-64
2021/06/01 07:50:54;;;;;;;2.05;1.70;;;21.40;62.90;;;;;;5084250;28;27419;-64
2021/06/01 07:53:39;;;;;;;3.67;1.90;;;21.50;63.30;;;;;;5085564;28;27492;-64
2021/06/01 07:56:24;;;;;;;2.97;2.30;;;21.70;62.80;;;;;;5084769;28;27399;-64
2021/06/01 07:59:09;;;;;;;2.70;2.08;;;22.00;61.60;;;;;;5083312;28;27583;-63
2021/06/01 08:01:54;;;;;;;2.80;1.85;;;22.20;60.90;;;;;;5083780;28;27442;-66
2021/06/01 08:04:38;;;;;;;26.05;3.65;;;22.30;54.70;;;;;;5084013;28;27462;-66
2021/06/01 08:07:23;;;;;;;6.18;1.95;;;22.50;51.80;;;;;;5083697;28;27552;-66
2021/06/01 08:10:08;;;;;;;3.08;1.92;;;22.50;49.40;;;;;;5084518;28;27382;-65
2021/06/01 08:12:54;;;;;;;5.53;2.20;;;22.60;48.80;;;;;;5083632;28;27422;-64
2021/06/01 08:15:43;;;;;;;4.00;2.10;;;22.60;44.80;;;;;;5083440;28;27526;-64
2021/06/01 08:18:31;;;;;;;2.08;1.90;;;22.70;42.90;;;;;;5086051;28;27407;-65
2021/06/01 08:21:26;;;;;;;4.78;1.77;;;22.80;43.50;;;;;;5086927;28;27390;-66
2021/06/01 08:24:11;;;;;;;6.45;2.28;;;22.90;41.70;;;;;;5086800;28;27386;-66
2021/06/01 08:26:56;;;;;;;4.38;2.28;;;23.00;46.60;;;;;;5087862;28;27405;-65
2021/06/01 08:29:41;;;;;;;3.15;2.00;;;23.20;44.00;;;;;;5093999;28;26876;-66
2021/06/01 08:32:30;;;;;;;3.20;2.13;;;23.30;45.60;;;;;;5089498;28;27360;-66
2021/06/01 08:35:15;;;;;;;3.13;2.05;;;23.50;46.00;;;;;;5096466;28;27395;-66
2021/06/01 08:38:03;;;;;;;2.45;1.88;;;23.70;46.20;;;;;;5094758;28;27409;-66
2021/06/01 08:40:51;;;;;;;2.50;1.85;;;23.90;47.60;;;;;;5086843;28;27317;-66
2021/06/01 08:43:36;;;;;;;2.38;1.70;;;24.10;47.70;;;;;;5087079;28;27403;-66
2021/06/01 08:46:23;;;;;;;5.18;2.08;;;24.20;48.20;;;;;;5086516;28;27332;-66
2021/06/01 08:49:12;;;;;;;3.75;2.05;;;24.40;49.20;;;;;;5085579;28;27943;-66
2021/06/01 08:51:57;;;;;;;3.10;1.92;;;24.50;48.20;;;;;;5085514;28;27408;-66
2021/06/01 08:54:44;;;;;;;2.63;1.80;;;24.70;48.80;;;;;;5086703;28;27457;-66
2021/06/01 08:57:29;;;;;;;7.68;2.00;;;24.90;48.80;;;;;;5085574;28;27410;-66
2021/06/01 09:00:14;;;;;;;2.00;1.60;;;25.00;50.80;;;;;;5086445;28;27407;-67
2021/06/01 09:03:06;;;;;;;2.65;1.60;;;25.10;51.00;;;;;;5086271;28;27357;-66
2021/06/01 09:06:03;;;;;;;2.42;1.90;;;25.30;48.60;;;;;;5100142;27;27556;-66
2021/06/01 09:21:31;;;;;;;3.00;2.00;;;25.90;44.80;;;;;;5082651;28;27388;-66
2021/06/01 09:24:16;;;;;;;4.38;2.15;;;26.00;48.00;;;;;;5085899;28;27336;-67
2021/06/01 09:27:13;;;;;;;3.00;1.90;;;26.20;45.40;;;;;;5085575;28;27379;-72
2021/06/01 09:29:58;;;;;;;4.82;2.08;;;26.20;43.40;;;;;;5084780;28;27443;-67
2021/06/01 09:32:43;;;;;;;2.05;1.70;;;26.20;44.00;;;;;;5086014;28;27494;-66
2021/06/01 09:35:51;;;;;;;2.20;1.60;;;26.30;47.90;;;;;;5085690;28;27414;-67
2021/06/01 09:38:36;;;;;;;2.03;1.55;;;26.50;47.20;;;;;;5085912;28;27388;-66
2021/06/01 09:41:27;;;;;;;3.97;1.70;;;26.60;45.50;;;;;;5085754;28;26920;-67
2021/06/01 09:44:12;;;;;;;3.10;1.50;;;26.60;48.10;;;;;;5085552;28;27422;-66
2021/06/01 09:47:00;;;;;;;2.78;1.70;;;26.70;47.60;;;;;;5085426;28;27336;-73
2021/06/01 09:49:44;;;;;;;1.77;1.55;;;26.80;47.90;;;;;;5085625;28;27423;-66
2021/06/01 09:52:48;;;;;;;1.65;1.45;;;26.80;49.30;;;;;;5085663;28;27472;-67
2021/06/01 09:55:37;;;;;;;3.60;2.28;;;27.00;48.90;;;;;;5085468;28;27385;-66
2021/06/01 09:58:31;;;;;;;2.13;1.55;;;27.10;50.30;;;;;;5085470;28;27483;-72
2021/06/01 10:01:16;;;;;;;3.67;1.65;;;27.20;50.10;;;;;;5085178;28;27419;-66
2021/06/01 10:04:02;;;;;;;1.73;1.58;;;27.30;51.10;;;;;;5085231;28;27466;-66
2021/06/01 10:06:46;;;;;;;7.10;1.75;;;27.50;51.10;;;;;;5085415;28;27445;-66
2021/06/01 10:09:44;;;;;;;3.92;1.40;;;27.50;50.40;;;;;;5085405;28;27480;-66
2021/06/01 10:12:28;;;;;;;2.60;1.70;;;27.60;50.40;;;;;;5085334;28;27382;-66
2021/06/01 10:15:14;;;;;;;1.92;1.60;;;27.60;49.50;;;;;;5083873;28;27346;-66
2021/06/01 10:17:59;;;;;;;1.60;1.50;;;27.50;44.70;;;;;;5080898;28;27416;-66
2021/06/01 10:20:45;;;;;;;2.40;1.67;;;27.50;45.40;;;;;;5084821;28;27923;-65
2021/06/01 10:23:32;;;;;;;2.25;1.50;;;27.50;45.60;;;;;;5085108;28;27472;-66
2021/06/01 10:26:17;;;;;;;2.38;1.73;;;27.50;48.40;;;;;;5085143;28;27390;-66
2021/06/01 10:29:01;;;;;;;3.08;1.70;;;27.60;52.60;;;;;;5084128;28;27335;-66
2021/06/01 10:31:46;;;;;;;1.80;1.60;;;27.70;52.80;;;;;;5084875;28;27357;-66
2021/06/01 10:34:31;;;;;;;3.08;1.50;;;27.80;53.60;;;;;;5084321;28;27442;-66
2021/06/01 10:52:09;;;;;;;3.05;1.38;;;28.00;48.40;;;;;;5080495;28;27477;-66
2021/06/01 10:54:54;;;;;;;3.00;1.80;;;28.00;50.20;;;;;;5080698;28;27405;-65
2021/06/01 10:58:02;;;;;;;3.85;1.35;;;28.10;50.10;;;;;;5084508;28;27375;-65
2021/06/01 11:03:31;;;;;;;3.72;1.63;;;28.20;55.40;;;;;;5083870;28;27375;-67
2021/06/01 11:06:16;;;;;;;2.83;1.30;;;28.20;50.60;;;;;;5084532;28;27333;-70
2021/06/01 11:09:01;;;;;;;2.78;1.33;;;28.20;50.60;;;;;;5083481;28;27610;-66
2021/06/01 11:11:46;;;;;;;1.70;1.60;;;28.10;51.80;;;;;;5084209;28;27411;-66
2021/06/01 11:14:31;;;;;;;2.65;1.40;;;28.10;49.70;;;;;;5084371;28;27388;-66
2021/06/01 11:17:38;;;;;;;2.30;1.55;;;28.10;52.90;;;;;;5083877;28;27426;-66
2021/06/01 11:20:33;;;;;;;1.98;1.60;;;28.20;50.90;;;;;;5084167;28;27348;-66
2021/06/01 11:35:13;;;;;;;4.10;2.28;;;28.20;51.50;;;;;;5080196;28;27337;-66
2021/06/01 11:38:09;;;;;;;3.63;1.40;;;28.20;54.20;;;;;;5083714;28;27383;-66
2021/06/01 11:44:00;;;;;;;3.35;1.30;;;28.20;54.40;;;;;;5090567;28;27431;-66
2021/06/01 11:47:09;;;;;;;2.45;1.80;;;28.20;57.00;;;;;;5084053;28;27355;-66
2021/06/01 11:52:57;;;;;;;2.78;1.63;;;28.10;48.80;;;;;;5084676;28;27357;-67
2021/06/01 11:55:46;;;;;;;1.70;1.50;;;28.00;52.00;;;;;;5087520;28;27605;-66
2021/06/01 12:02:12;;;;;;;2.10;1.70;;;28.00;49.90;;;;;;5087228;28;27411;-66
2021/06/01 12:05:15;;;;;;;3.40;2.10;;;28.00;52.40;;;;;;5087364;28;27313;-68
2021/06/01 12:13:55;;;;;;;3.67;1.50;;;28.00;53.10;;;;;;5087240;28;27364;-66
2021/06/01 12:19:48;;;;;;;3.13;1.80;;;27.90;53.10;;;;;;5086874;28;27411;-66
2021/06/01 12:22:33;;;;;;;2.88;1.85;;;27.90;50.10;;;;;;5087589;28;27430;-66
2021/06/01 12:25:19;;;;;;;1.52;1.33;;;27.80;56.80;;;;;;5087134;28;27465;-66
2021/06/01 12:28:16;;;;;;;2.58;1.40;;;27.80;57.80;;;;;;5086550;28;27431;-66
2021/06/01 12:31:03;;;;;;;2.45;1.55;;;27.80;59.30;;;;;;5086737;28;27383;-66
2021/06/01 12:34:00;;;;;;;6.05;1.67;;;27.80;56.70;;;;;;5087303;28;27637;-66
2021/06/01 13:38:32;;;;;;;4.25;1.77;;;26.70;51.70;;;;;;5085077;28;27317;-67
2021/06/01 13:47:21;;;;;;;4.88;1.67;;;26.70;54.00;;;;;;5085870;28;27337;-67
2021/06/01 13:50:07;;;;;;;3.58;1.73;;;26.70;52.30;;;;;;5085784;28;27423;-66
2021/06/01 13:55:07;;;;;;;2.90;1.42;;;26.70;51.00;;;;;;5085287;28;27993;-66
2021/06/01 14:20:21;;;;;;;3.63;1.65;;;26.90;55.10;;;;;;5084680;28;27466;-67
2021/06/01 14:38:20;;;;;;;4.65;1.40;;;26.80;52.10;;;;;;5084149;28;27385;-66
2021/06/01 15:09:32;;;;;;;2.00;1.80;;;26.80;45.30;;;;;;5076227;28;27385;-67
2021/06/01 15:47:51;;;;;;;3.55;1.80;;;26.50;43.10;;;;;;5087465;28;27395;-68
2021/06/01 15:50:46;;;;;;;2.97;1.45;;;26.50;43.40;;;;;;5087662;28;27388;-68
2021/06/01 16:30:00;;;;;;;3.58;2.00;;;26.40;47.40;;;;;;5086751;28;27366;-67
2021/06/01 16:41:50;;;;;;;2.65;1.73;;;26.50;49.00;;;;;;5098035;27;27474;-71
2021/06/01 17:06:00;;;;;;;3.25;1.90;;;25.70;42.50;;;;;;5086428;28;27399;-67
2021/06/01 17:11:36;;;;;;;3.00;1.63;;;25.60;43.80;;;;;;5086155;28;27403;-67
2021/06/01 17:14:24;;;;;;;2.95;1.73;;;25.50;43.00;;;;;;5086059;28;27316;-67
2021/06/01 17:17:09;;;;;;;2.00;1.77;;;25.50;44.00;;;;;;5085692;28;27444;-66
2021/06/01 17:34:40;;;;;;;4.80;2.03;;;24.80;46.00;;;;;;5086057;28;27353;-69
2021/06/01 17:37:26;;;;;;;1.80;1.70;;;24.70;45.20;;;;;;5084696;28;27447;-66
2021/06/01 17:40:13;;;;;;;1.95;1.75;;;24.60;47.60;;;;;;5085574;28;27482;-69
2021/06/01 17:43:05;;;;;;;4.15;1.75;;;24.50;47.80;;;;;;5084833;28;27484;-67
2021/06/01 17:45:50;;;;;;;5.70;1.90;;;24.40;48.00;;;;;;5085580;28;27466;-66
2021/06/01 17:48:48;;;;;;;2.05;1.55;;;24.30;48.40;;;;;;5099203;27;27492;-67
2021/06/01 17:51:33;;;;;;;2.28;2.05;;;24.30;49.40;;;;;;5084591;28;27418;-67
2021/06/01 17:54:24;;;;;;;2.83;1.80;;;24.20;51.30;;;;;;5085734;28;27454;-69
2021/06/01 17:57:09;;;;;;;2.13;1.75;;;24.10;48.50;;;;;;5084755;28;27589;-66
2021/06/01 17:59:55;;;;;;;2.70;2.45;;;24.00;51.70;;;;;;5085615;28;27439;-66
2021/06/01 18:02:39;;;;;;;2.03;1.60;;;23.90;51.90;;;;;;5085257;28;27510;-67
2021/06/01 18:05:31;;;;;;;2.05;1.85;;;23.80;53.20;;;;;;5085435;28;27497;-66
2021/06/01 18:08:22;;;;;;;1.90;1.48;;;23.70;53.40;;;;;;5085227;28;27403;-66
2021/06/01 18:11:41;;;;;;;5.32;1.95;;;23.60;53.80;;;;;;5085382;28;27406;-69
2021/06/01 19:22:59;;;;;;;2.25;1.80;;;21.80;57.30;;;;;;5095603;27;27356;-66
2021/06/01 19:25:29;;;;;;;4.70;2.00;;;21.70;57.90;;;;;;5082645;28;27502;-65
2021/06/01 19:52:47;;;;;;;4.68;1.73;;;20.80;65.80;;;;;;5083596;28;27423;-64
2021/06/01 19:55:32;;;;;;;3.05;1.98;;;20.70;64.30;;;;;;5083601;28;27410;-65
2021/06/01 19:58:17;;;;;;;3.70;2.25;;;20.60;64.90;;;;;;5083836;28;27391;-65
2021/06/01 20:01:05;;;;;;;2.75;2.05;;;20.60;63.00;;;;;;5079836;28;27455;-65
2021/06/01 20:03:51;;;;;;;3.08;2.30;;;20.50;65.30;;;;;;5083759;28;27872;-65
2021/06/01 20:06:37;;;;;;;4.30;1.98;;;20.40;64.70;;;;;;5082892;28;27419;-68
2021/06/01 20:09:22;;;;;;;2.40;1.85;;;20.30;66.30;;;;;;5083462;28;27371;-68
2021/06/01 20:12:08;;;;;;;2.13;1.88;;;20.30;65.50;;;;;;5082576;28;27480;-64
2021/06/01 20:14:53;;;;;;;2.40;1.98;;;20.20;66.80;;;;;;5086397;28;27472;-64
2021/06/01 20:17:39;;;;;;;3.05;2.20;;;20.10;67.20;;;;;;5086176;28;27476;-64
2021/06/01 20:20:25;;;;;;;4.80;2.13;;;20.10;67.20;;;;;;5086450;28;27329;-64
2021/06/01 20:23:10;;;;;;;4.13;1.92;;;20.00;66.50;;;;;;5086856;28;27328;-64
2021/06/01 20:25:55;;;;;;;2.30;2.10;;;19.90;67.60;;;;;;5086285;28;27333;-64
2021/06/01 20:28:43;;;;;;;4.45;2.50;;;19.90;68.20;;;;;;5085781;28;27344;-64
2021/06/01 20:31:31;;;;;;;3.78;2.05;;;19.80;68.50;;;;;;5086873;28;27364;-64
2021/06/01 20:34:16;;;;;;;4.35;2.20;;;19.70;68.30;;;;;;5085882;28;27474;-64
2021/06/01 20:37:01;;;;;;;5.30;2.17;;;19.70;68.50;;;;;;5086318;28;27464;-64
2021/06/01 20:39:45;;;;;;;3.28;1.90;;;19.60;68.30;;;;;;5086046;28;27442;-64
2021/06/01 20:42:30;;;;;;;2.13;1.92;;;19.60;69.50;;;;;;5086507;28;27490;-64
2021/06/01 20:45:15;;;;;;;2.95;2.20;;;19.60;69.40;;;;;;5085850;28;27468;-67
2021/06/01 20:48:02;;;;;;;4.47;2.40;;;19.50;68.70;;;;;;5086461;28;27979;-64
2021/06/01 20:50:47;;;;;;;4.47;2.00;;;19.50;69.50;;;;;;5085897;28;27576;-64
2021/06/01 20:53:32;;;;;;;3.00;2.25;;;19.40;69.40;;;;;;5086859;28;27411;-64
2021/06/01 20:56:17;;;;;;;5.10;2.53;;;19.40;69.40;;;;;;5086324;28;27400;-64
2021/06/01 20:59:02;;;;;;;2.30;2.10;;;19.30;69.70;;;;;;5086700;28;27507;-64
2021/06/01 21:01:49;;;;;;;2.58;2.10;;;19.20;69.50;;;;;;5085610;28;27477;-64
2021/06/01 21:04:33;;;;;;;3.80;2.08;;;19.20;69.90;;;;;;5086767;28;27404;-64
2021/06/01 21:07:18;;;;;;;2.40;2.00;;;19.10;69.90;;;;;;5085504;28;27439;-64
2021/06/01 21:10:03;;;;;;;2.28;2.08;;;19.10;69.40;;;;;;5086462;28;27443;-68
2021/06/01 21:12:48;;;;;;;3.75;2.63;;;19.10;69.20;;;;;;5086259;28;27482;-64
2021/06/01 21:15:33;;;;;;;2.25;2.00;;;19.00;70.40;;;;;;5082033;28;27408;-65
2021/06/01 21:18:17;;;;;;;5.10;2.38;;;19.00;70.30;;;;;;5086230;28;27390;-68
2021/06/01 21:21:12;;;;;;;3.60;2.20;;;18.90;69.60;;;;;;5086250;28;27424;-64
2021/06/01 21:23:56;;;;;;;4.22;2.17;;;18.90;70.30;;;;;;5085221;28;27419;-64
2021/06/01 21:26:41;;;;;;;4.07;1.88;;;18.80;70.20;;;;;;5086147;28;27511;-64
2021/06/01 21:29:25;;;;;;;4.03;2.58;;;18.80;70.50;;;;;;5085482;28;27808;-68